Time;durP1;ratioP1;P1;durP2;ratioP2;P2;SDS_P1;SDS_P2;PMS_P1;PMS_P2;Temp;Humidity;BMP_temperature;BMP_pressure;BME280_temperature;BME280_humidity;BME280_pressure;Samples;Min_cycle;Max_cycle;Signal;HPM_P1;HPM_P2
2021/10/05 00:00:22;;;;;;;7.72;3.60;;;;;;;8.01;75.22;97307.72;5056178;28;20475;-62
2021/10/05 00:02:48;;;;;;;5.50;3.92;;;;;;;7.90;74.66;97300.06;5056063;28;20101;-62
2021/10/05 00:05:14;;;;;;;8.68;3.80;;;;;;;7.88;74.05;97307.88;5055987;28;20044;-62
2021/10/05 00:07:40;;;;;;;8.02;3.53;;;;;;;7.87;73.48;97311.38;5055986;28;20432;-62
2021/10/05 00:10:08;;;;;;;9.07;4.07;;;;;;;7.87;73.38;97308.78;5056112;28;20032;-62
2021/10/05 00:12:34;;;;;;;6.13;3.70;;;;;;;7.86;73.19;97309.69;5056151;28;20481;-62
2021/10/05 00:15:00;;;;;;;8.80;4.13;;;;;;;7.80;72.96;97304.56;5056058;28;20032;-61
2021/10/05 00:17:26;;;;;;;8.15;4.10;;;;;;;7.79;74.10;97305.41;5055927;28;20104;-62
2021/10/05 00:19:51;;;;;;;5.65;3.63;;;;;;;7.72;74.56;97296.84;5055732;28;20032;-62
2021/10/05 00:22:17;;;;;;;7.25;4.18;;;;;;;7.65;74.44;97290.00;5055899;28;20096;-62
2021/10/05 00:24:44;;;;;;;5.25;2.85;;;;;;;7.58;74.60;97292.69;5055847;28;20417;-61
2021/10/05 00:27:09;;;;;;;6.57;3.40;;;;;;;7.62;73.34;97292.66;5055700;28;20025;-61
2021/10/05 00:29:35;;;;;;;7.68;3.80;;;;;;;7.61;73.12;97291.78;5055595;28;20075;-62
2021/10/05 00:32:01;;;;;;;6.15;3.92;;;;;;;7.62;73.69;97287.44;5055695;28;20029;-62
2021/10/05 00:34:26;;;;;;;6.07;4.20;;;;;;;7.59;73.68;97294.41;5055582;28;20029;-61
2021/10/05 00:36:52;;;;;;;7.38;3.90;;;;;;;7.61;73.65;97291.78;5055341;28;20049;-62
2021/10/05 00:39:18;;;;;;;9.05;4.18;;;;;;;7.55;73.57;97287.53;5055355;28;20364;-62
2021/10/05 00:41:44;;;;;;;7.22;3.60;;;;;;;7.65;72.73;97288.25;5055296;28;20025;-61
2021/10/05 00:44:09;;;;;;;4.15;3.65;;;;;;;7.58;73.01;97279.66;5055388;28;20032;-61
2021/10/05 00:46:35;;;;;;;7.35;3.90;;;;;;;7.59;73.08;97286.59;5055369;28;20025;-62
2021/10/05 00:49:02;;;;;;;8.15;3.80;;;;;;;7.58;72.47;97287.47;5055281;28;20032;-61
2021/10/05 00:51:28;;;;;;;4.40;3.63;;;;;;;7.53;72.18;97286.66;5055361;28;20479;-62
2021/10/05 00:53:54;;;;;;;10.77;3.35;;;;;;;7.45;72.67;97291.13;5055236;28;20475;-62
2021/10/05 00:56:21;;;;;;;7.85;3.53;;;;;;;7.42;73.02;97288.56;5055206;28;20017;-61
2021/10/05 00:58:47;;;;;;;6.30;3.75;;;;;;;7.41;72.98;97281.66;5055030;28;20044;-61
2021/10/05 01:01:12;;;;;;;4.40;3.65;;;;;;;7.36;73.14;97281.72;5055075;28;20352;-61
2021/10/05 01:03:39;;;;;;;7.50;4.20;;;;;;;7.31;73.71;97273.09;5054973;28;20017;-62
2021/10/05 01:06:05;;;;;;;7.28;4.30;;;;;;;7.29;73.83;97277.47;5055016;28;20534;-61
2021/10/05 01:08:31;;;;;;;6.63;3.60;;;;;;;7.26;73.75;97273.16;5054914;28;20116;-62
2021/10/05 01:10:58;;;;;;;8.98;4.20;;;;;;;7.31;73.51;97271.34;5054857;28;20104;-62
2021/10/05 01:13:24;;;;;;;3.97;3.53;;;;;;;7.30;72.97;97269.63;5054817;28;20075;-62
2021/10/05 01:15:49;;;;;;;6.57;3.97;;;;;;;7.28;72.78;97266.19;5054747;28;20503;-62
2021/10/05 01:18:15;;;;;;;7.22;3.72;;;;;;;7.30;72.85;97269.63;5054626;28;20029;-62
2021/10/05 01:21:00;;;;;;;10.07;4.05;;;;;;;7.26;73.08;97272.31;5054628;28;20487;-61
2021/10/05 01:23:27;;;;;;;8.27;3.88;;;;;;;7.24;73.41;97272.31;5054622;28;20028;-61
2021/10/05 01:25:54;;;;;;;7.20;3.95;;;;;;;7.22;73.89;97274.06;5054576;28;20039;-61
2021/10/05 01:28:21;;;;;;;9.75;4.45;;;;;;;7.11;74.53;97275.97;5054567;28;20075;-61
2021/10/05 01:30:47;;;;;;;5.80;4.15;;;;;;;7.05;74.94;97275.13;5053918;28;20025;-62
2021/10/05 01:33:13;;;;;;;8.00;3.95;;;;;;;7.10;75.14;97271.63;5054499;28;20500;-61
2021/10/05 01:35:39;;;;;;;7.63;3.88;;;;;;;7.09;73.66;97278.56;5054255;28;20091;-61
2021/10/05 01:38:05;;;;;;;9.07;4.30;;;;;;;7.08;74.31;97277.69;5054325;28;20028;-61
2021/10/05 01:40:31;;;;;;;9.27;4.10;;;;;;;7.07;74.40;97276.00;5054163;28;20119;-61
2021/10/05 01:42:57;;;;;;;6.53;4.47;;;;;;;6.98;75.08;97267.44;5054158;28;20017;-61
2021/10/05 01:45:22;;;;;;;7.13;4.57;;;;;;;6.93;75.31;97270.09;5054199;28;20025;-61
2021/10/05 01:47:48;;;;;;;5.60;4.28;;;;;;;6.96;75.18;97259.66;5054106;28;20438;-62
2021/10/05 01:50:14;;;;;;;7.70;4.25;;;;;;;6.98;74.92;97257.03;5052845;28;20029;-61
2021/10/05 01:52:40;;;;;;;4.10;3.60;;;;;;;6.99;74.44;97259.63;5053973;28;20094;-61
2021/10/05 01:55:07;;;;;;;5.32;3.72;;;;;;;7.05;74.01;97261.28;5053949;28;20466;-61
2021/10/05 01:57:33;;;;;;;7.50;3.65;;;;;;;7.05;73.06;97263.88;5053849;28;20025;-61
2021/10/05 01:59:59;;;;;;;5.40;3.80;;;;;;;7.02;72.85;97263.91;5053935;28;20025;-61
2021/10/05 02:02:25;;;;;;;5.97;3.78;;;;;;;7.02;72.80;97258.72;5053904;28;20079;-61
2021/10/05 02:04:51;;;;;;;11.00;4.38;;;;;;;7.01;73.37;97252.63;5053865;28;20032;-61
2021/10/05 02:07:16;;;;;;;8.20;4.72;;;;;;;7.01;73.78;97254.41;5053802;28;20067;-61
2021/10/05 02:09:47;;;;;;;10.02;4.15;;;;;;;7.02;73.64;97264.78;5053706;28;20021;-61
2021/10/05 02:12:15;;;;;;;5.78;3.92;;;;;;;6.96;73.70;97257.06;5053865;28;20482;-61
2021/10/05 02:14:45;;;;;;;9.05;4.25;;;;;;;6.92;74.06;97258.81;5053697;28;20475;-61
2021/10/05 02:17:10;;;;;;;6.27;3.33;;;;;;;6.92;73.63;97257.94;5053584;28;20482;-61
2021/10/05 02:19:37;;;;;;;7.20;4.47;;;;;;;6.88;74.66;97259.75;5053598;28;20120;-61
2021/10/05 02:22:03;;;;;;;8.32;4.43;;;;;;;6.76;74.97;97260.75;5053469;28;20024;-61
2021/10/05 02:26:56;;;;;;;8.15;4.45;;;;;;;6.79;74.50;97252.03;5053496;28;20032;-61
2021/10/05 02:29:22;;;;;;;6.32;4.40;;;;;;;6.79;74.55;97255.50;5053370;28;20082;-61
2021/10/05 02:31:49;;;;;;;5.32;3.70;;;;;;;6.79;74.28;97255.50;5053470;28;20025;-61
2021/10/05 02:34:15;;;;;;;12.70;4.28;;;;;;;6.79;74.27;97254.63;5053280;28;20059;-61
2021/10/05 02:36:42;;;;;;;9.00;4.28;;;;;;;6.76;74.24;97258.16;5053077;28;20041;-61
2021/10/05 02:39:08;;;;;;;6.60;4.00;;;;;;;6.75;74.21;97253.84;5053209;28;20115;-61
2021/10/05 02:41:34;;;;;;;8.43;4.40;;;;;;;6.77;74.32;97252.06;5052836;28;20070;-62
2021/10/05 02:43:59;;;;;;;10.40;3.80;;;;;;;6.80;73.87;97257.22;5052647;28;20028;-62
2021/10/05 02:46:25;;;;;;;7.32;4.15;;;;;;;6.79;73.67;97260.72;5053270;28;20037;-61
2021/10/05 02:48:50;;;;;;;7.78;4.53;;;;;;;6.76;73.66;97262.47;5053319;28;20025;-62
2021/10/05 02:51:16;;;;;;;6.15;4.10;;;;;;;6.72;73.85;97263.41;5052934;28;20075;-62
2021/10/05 02:53:41;;;;;;;7.72;4.80;;;;;;;6.63;73.83;97262.63;5053030;28;20021;-62
2021/10/05 02:56:07;;;;;;;7.57;4.53;;;;;;;6.47;75.34;97261.91;5053140;28;20021;-62
2021/10/05 02:58:32;;;;;;;7.05;4.68;;;;;;;6.46;75.61;97257.59;5052960;28;20020;-62
2021/10/05 03:00:58;;;;;;;9.70;5.30;;;;;;;6.50;75.36;97253.22;5053045;28;20493;-62
2021/10/05 03:03:24;;;;;;;7.97;4.45;;;;;;;6.47;75.36;97256.69;5052966;28;20040;-62
2021/10/05 03:05:49;;;;;;;7.43;4.68;;;;;;;6.44;75.31;97254.13;5052950;28;20467;-62
2021/10/05 03:08:15;;;;;;;6.53;4.60;;;;;;;6.43;75.07;97252.41;5052983;28;20649;-62
2021/10/05 03:10:40;;;;;;;7.82;4.25;;;;;;;6.47;75.10;97250.66;5053000;28;20387;-62
2021/10/05 03:13:06;;;;;;;6.88;4.18;;;;;;;6.44;74.54;97248.94;5052959;28;20393;-62
2021/10/05 03:15:31;;;;;;;10.20;4.43;;;;;;;6.45;74.41;97253.28;5052794;28;20099;-62
2021/10/05 03:17:57;;;;;;;6.40;4.28;;;;;;;6.48;74.20;97249.78;5052643;28;20025;-62
2021/10/05 03:20:23;;;;;;;7.63;4.57;;;;;;;6.47;73.83;97256.69;5052809;28;20017;-62
2021/10/05 03:22:48;;;;;;;8.25;4.50;;;;;;;6.44;74.25;97255.00;5052767;28;20017;-62
2021/10/05 03:25:14;;;;;;;7.43;4.20;;;;;;;6.48;74.71;97249.78;5052708;28;20017;-62
2021/10/05 03:27:40;;;;;;;9.50;4.40;;;;;;;6.49;74.26;97256.69;5052750;28;20066;-62
2021/10/05 03:30:09;;;;;;;7.15;4.45;;;;;;;6.47;74.52;97248.06;5052858;28;20115;-62
2021/10/05 03:32:35;;;;;;;6.53;4.80;;;;;;;6.42;75.54;97248.94;5052721;28;20475;-62
2021/10/05 03:35:00;;;;;;;9.15;5.35;;;;;;;6.44;75.49;97256.72;5052813;28;20033;-62
2021/10/05 03:37:26;;;;;;;6.75;4.50;;;;;;;6.44;75.34;97251.53;5052615;28;20045;-62
2021/10/05 03:39:52;;;;;;;9.68;5.15;;;;;;;6.42;74.31;97259.34;5052567;28;20414;-61
2021/10/05 03:42:18;;;;;;;10.27;4.38;;;;;;;6.40;74.02;97252.44;5052682;28;20032;-62
2021/10/05 03:44:43;;;;;;;8.95;4.78;;;;;;;6.39;74.41;97262.00;5052745;28;20021;-62
2021/10/05 03:47:09;;;;;;;9.18;5.95;;;;;;;6.37;74.11;97255.94;5052644;28;20489;-62
2021/10/05 03:49:34;;;;;;;9.27;4.43;;;;;;;6.39;73.91;97253.34;5052582;28;20109;-62
2021/10/05 03:52:00;;;;;;;7.60;4.45;;;;;;;6.38;73.75;97257.66;5052547;28;20021;-62
2021/10/05 03:54:26;;;;;;;7.80;4.50;;;;;;;6.40;73.53;97257.66;5054696;28;20013;-61
2021/10/05 03:56:51;;;;;;;5.75;4.25;;;;;;;6.36;74.16;97256.81;5056370;28;20056;-62
2021/10/05 03:59:19;;;;;;;7.10;4.60;;;;;;;6.32;74.45;97260.31;5056166;28;20074;-62
2021/10/05 04:01:45;;;;;;;8.85;4.45;;;;;;;6.32;74.97;97262.91;5056241;28;20032;-62
2021/10/05 04:04:11;;;;;;;7.47;4.10;;;;;;;6.36;74.31;97266.34;5056077;28;20033;-62
2021/10/05 04:06:37;;;;;;;6.95;4.07;;;;;;;6.32;73.94;97268.09;5056223;28;20021;-62
2021/10/05 04:09:05;;;;;;;5.97;4.03;;;;;;;6.31;73.51;97272.47;5056090;28;20033;-62
2021/10/05 04:11:34;;;;;;;6.95;4.18;;;;;;;6.22;72.79;97272.53;5056069;28;20021;-62
2021/10/05 04:14:00;;;;;;;6.85;4.32;;;;;;;6.11;73.61;97266.59;5056032;28;20024;-61
2021/10/05 04:16:26;;;;;;;6.72;3.83;;;;;;;6.08;74.33;97272.63;5055914;28;20017;-62
2021/10/05 04:18:52;;;;;;;9.25;4.07;;;;;;;6.03;74.61;97272.69;5055824;28;20489;-62
2021/10/05 04:21:18;;;;;;;9.07;4.72;;;;;;;5.99;75.35;97281.34;5055881;28;20021;-62
2021/10/05 04:23:45;;;;;;;8.30;4.25;;;;;;;6.00;75.08;97285.69;5055702;28;20431;-62
2021/10/05 04:26:10;;;;;;;9.88;4.68;;;;;;;6.05;74.58;97280.50;5055739;28;20497;-62
2021/10/05 04:28:36;;;;;;;6.22;4.75;;;;;;;5.99;74.48;97281.34;5055618;28;20021;-61
2021/10/05 04:31:02;;;;;;;10.13;4.50;;;;;;;5.95;74.71;97284.84;5055694;28;20017;-61
2021/10/05 04:33:27;;;;;;;12.75;4.90;;;;;;;5.99;74.64;97290.88;5055706;28;20440;-62
2021/10/05 04:35:53;;;;;;;6.15;4.78;;;;;;;5.96;75.12;97283.13;5055273;28;20128;-62
2021/10/05 04:38:18;;;;;;;7.22;4.15;;;;;;;5.97;75.31;97280.50;5055501;28;20100;-62
2021/10/05 04:40:44;;;;;;;10.27;4.80;;;;;;;6.01;75.22;97283.94;5055592;28;20017;-62
2021/10/05 04:43:09;;;;;;;12.38;5.07;;;;;;;6.05;75.16;97280.50;5055378;28;20025;-62
2021/10/05 04:45:35;;;;;;;5.95;4.65;;;;;;;6.10;74.85;97277.81;5055412;28;20036;-61
2021/10/05 04:48:05;;;;;;;8.32;4.20;;;;;;;6.16;74.08;97286.44;5055265;28;20021;-62
2021/10/05 04:50:31;;;;;;;8.85;4.05;;;;;;;6.22;74.71;97287.25;5055251;28;20509;-62
2021/10/05 04:52:57;;;;;;;7.15;4.70;;;;;;;6.27;75.29;97283.78;5055194;28;20056;-62
2021/10/05 04:55:23;;;;;;;5.13;4.03;;;;;;;6.30;75.52;97291.50;5055217;28;20044;-62
2021/10/05 04:57:48;;;;;;;6.32;4.47;;;;;;;6.35;75.18;97290.63;5055122;28;20033;-62
2021/10/05 05:00:14;;;;;;;9.90;5.47;;;;;;;6.39;75.30;97300.13;5055003;28;20394;-62
2021/10/05 05:02:40;;;;;;;6.47;4.15;;;;;;;6.47;75.41;97298.28;5054955;28;20025;-62
2021/10/05 05:05:06;;;;;;;7.85;4.32;;;;;;;6.53;74.80;97306.03;5054231;28;20044;-61
2021/10/05 05:07:33;;;;;;;8.77;4.07;;;;;;;6.62;75.24;97297.28;5055070;28;20024;-61
2021/10/05 05:10:00;;;;;;;11.40;4.32;;;;;;;7.51;74.17;97301.47;5055001;28;20140;-62
2021/10/05 05:12:25;;;;;;;6.63;3.38;;;;;;;8.84;69.39;97302.84;5054714;28;20036;-62
2021/10/05 05:14:51;;;;;;;5.97;3.60;;;;;;;10.22;65.44;97311.25;5054947;28;20017;-61
2021/10/05 05:17:16;;;;;;;8.60;3.03;;;;;;;11.58;60.11;97310.28;5054752;28;20103;-61
2021/10/05 05:19:44;;;;;;;4.95;2.38;;;;;;;12.70;55.91;97310.31;5054701;28;20028;-62
2021/10/05 05:22:09;;;;;;;9.63;2.65;;;;;;;13.69;53.15;97311.16;5054778;28;20052;-61
2021/10/05 05:24:35;;;;;;;8.77;2.55;;;;;;;14.42;51.88;97307.41;5054536;28;20471;-62
2021/10/05 05:27:02;;;;;;;5.60;2.58;;;;;;;15.24;51.15;97313.66;5054656;28;20028;-62
2021/10/05 05:29:28;;;;;;;6.05;2.60;;;;;;;16.08;48.41;97313.41;5054555;28;20025;-62
2021/10/05 05:31:57;;;;;;;6.55;2.20;;;;;;;16.86;47.30;97310.41;5054504;28;20154;-61
2021/10/05 05:34:23;;;;;;;3.33;2.08;;;;;;;17.47;46.34;97304.66;5054422;28;20056;-61
2021/10/05 05:36:49;;;;;;;4.18;2.33;;;;;;;18.30;43.89;97305.44;5054158;28;20175;-61
2021/10/05 05:39:16;;;;;;;4.80;2.35;;;;;;;19.06;42.23;97303.66;5054275;28;20115;-62
2021/10/05 05:41:45;;;;;;;6.80;2.50;;;;;;;19.59;41.76;97302.28;5054226;28;20155;-61
2021/10/05 05:44:11;;;;;;;2.83;2.28;;;;;;;20.02;41.01;97298.72;5054456;28;20482;-62
2021/10/05 05:46:36;;;;;;;5.10;2.15;;;;;;;20.73;40.28;97292.34;5054363;28;20040;-62
2021/10/05 05:49:02;;;;;;;2.95;2.42;;;;;;;21.23;39.74;97301.44;5054105;28;20028;-62
2021/10/05 05:51:28;;;;;;;4.13;2.58;;;;;;;21.74;38.75;97297.88;5054096;28;20025;-62
2021/10/05 05:53:53;;;;;;;5.78;2.30;;;;;;;22.42;37.88;97302.75;5054229;28;20025;-62
2021/10/05 05:56:19;;;;;;;2.55;2.20;;;;;;;23.04;36.69;97301.75;5054025;28;20471;-62
2021/10/05 05:58:44;;;;;;;2.22;2.03;;;;;;;23.57;35.34;97306.56;5053897;28;20107;-63
2021/10/05 06:01:11;;;;;;;5.18;2.30;;;;;;;24.04;34.68;97324.25;5053950;28;20025;-62
2021/10/05 06:03:37;;;;;;;6.63;2.10;;;;;;;24.57;33.92;97322.66;5053824;28;20072;-62
2021/10/05 06:06:02;;;;;;;5.95;2.60;;;;;;;25.25;33.00;97320.59;5053866;28;20049;-63
2021/10/05 06:08:28;;;;;;;6.82;2.70;;;;;;;25.66;32.23;97318.00;5053854;28;20017;-63
2021/10/05 06:10:54;;;;;;;6.85;2.70;;;;;;;25.99;31.74;97315.16;5053729;28;20017;-61
2021/10/05 06:13:20;;;;;;;3.10;2.08;;;;;;;26.39;31.17;97318.78;5053645;28;20051;-62
2021/10/05 06:15:45;;;;;;;5.50;2.75;;;;;;;26.80;31.03;97318.63;5053651;28;20021;-63
2021/10/05 06:18:11;;;;;;;3.55;2.55;;;;;;;27.36;30.21;97320.69;5053589;28;20083;-61
2021/10/05 06:20:36;;;;;;;6.20;2.72;;;;;;;27.72;30.03;97325.41;5053728;28;20021;-63
2021/10/05 06:23:02;;;;;;;5.70;2.33;;;;;;;28.02;29.23;97333.31;5053568;28;20029;-62
2021/10/05 06:25:30;;;;;;;5.53;2.55;;;;;;;28.36;28.66;97336.22;5053548;28;20031;-63
2021/10/05 06:27:58;;;;;;;9.15;3.47;;;;;;;28.85;28.29;97337.69;5053362;28;20021;-61
2021/10/05 06:30:25;;;;;;;6.63;2.90;;;;;;;29.44;27.68;97333.59;5053392;28;20021;-61
2021/10/05 06:32:53;;;;;;;6.35;2.40;;;;;;;29.58;27.39;97334.00;5053410;28;20021;-63
2021/10/05 06:35:24;;;;;;;3.55;2.22;;;;;;;29.86;26.91;97336.50;5053144;28;20107;-61
2021/10/05 06:37:54;;;;;;;10.38;2.90;;;;;;;30.11;26.51;97342.84;5053143;28;20509;-62
2021/10/05 06:40:20;;;;;;;3.92;2.38;;;;;;;30.13;27.04;97348.91;5053156;28;20036;-61
2021/10/05 06:42:46;;;;;;;5.35;2.80;;;;;;;30.43;26.19;97348.50;5053336;28;20479;-63
2021/10/05 06:45:11;;;;;;;3.28;2.65;;;;;;;30.69;25.67;97347.53;5053178;28;20036;-61
2021/10/05 06:47:37;;;;;;;7.90;3.90;;;;;;;30.71;25.58;97353.63;5053236;28;20025;-62
2021/10/05 06:50:04;;;;;;;5.82;3.50;;;;;;;30.77;26.14;97361.09;5053290;28;20021;-62
2021/10/05 06:52:30;;;;;;;9.20;3.15;;;;;;;30.63;26.16;97359.84;5052954;28;20066;-61
2021/10/05 06:54:56;;;;;;;9.43;3.60;;;;;;;30.50;26.04;97363.03;5053026;28;20021;-62
2021/10/05 06:57:21;;;;;;;8.55;4.13;;;;;;;30.32;26.33;97368.56;5053097;28;20017;-63
2021/10/05 06:59:47;;;;;;;5.90;2.80;;;;;;;30.20;27.04;97372.56;5053033;28;20433;-60
2021/10/05 07:02:13;;;;;;;4.72;2.80;;;;;;;29.80;27.02;97367.66;5053655;28;20108;-62
2021/10/05 07:04:39;;;;;;;3.70;3.08;;;;;;;28.47;28.45;97377.38;5052892;28;20020;-62
2021/10/05 07:07:04;;;;;;;7.90;3.20;;;;;;;27.16;30.91;97376.25;5053023;28;20029;-62
2021/10/05 07:09:30;;;;;;;8.38;3.40;;;;;;;25.95;33.09;97368.16;5053059;28;20047;-61
2021/10/05 07:11:55;;;;;;;5.60;3.67;;;;;;;24.85;35.23;97384.53;5053029;28;20037;-62
2021/10/05 07:14:21;;;;;;;5.65;3.78;;;;;;;23.78;37.25;97375.25;5052882;28;20396;-62
2021/10/05 07:16:47;;;;;;;5.13;3.83;;;;;;;22.89;39.28;97368.66;5052826;28;20040;-61
2021/10/05 07:19:13;;;;;;;7.85;3.60;;;;;;;22.13;41.19;97360.84;5051611;28;20025;-60
2021/10/05 07:21:38;;;;;;;4.43;3.63;;;;;;;21.41;43.05;97361.38;5052951;28;20083;-61
2021/10/05 07:24:04;;;;;;;5.13;3.72;;;;;;;20.73;44.63;97365.91;5052944;28;20063;-60
2021/10/05 07:26:30;;;;;;;8.40;3.65;;;;;;;20.19;46.28;97366.69;5052863;28;20021;-60
2021/10/05 07:28:56;;;;;;;6.00;3.22;;;;;;;20.12;47.39;97365.38;5054429;28;20104;-61
2021/10/05 07:31:22;;;;;;;5.95;3.75;;;;;;;20.45;nan;97357.97;5056754;28;20474;-61
2021/10/05 07:33:48;;;;;;;6.63;3.35;;;;;;;20.85;46.07;97359.78;5056799;28;20079;-62
2021/10/05 07:36:14;;;;;;;8.38;3.30;;;;;;;21.29;44.50;97363.06;5056435;28;20086;-60
2021/10/05 07:38:40;;;;;;;6.47;3.13;;;;;;;21.41;44.15;97373.81;5056598;28;20029;-60
2021/10/05 07:41:06;;;;;;;5.28;2.65;;;;;;;21.17;45.74;97364.78;5056574;28;20032;-61
2021/10/05 07:43:32;;;;;;;9.00;2.80;;;;;;;21.13;45.38;97365.91;5056610;28;20399;-60
2021/10/05 07:46:00;;;;;;;4.60;2.83;;;;;;;20.80;44.32;97354.78;5056452;28;20158;-61
2021/10/05 07:48:25;;;;;;;8.45;3.00;;;;;;;20.45;45.83;97364.16;5056515;28;20032;-61
2021/10/05 07:50:51;;;;;;;6.10;3.28;;;;;;;20.08;46.33;97366.53;5056401;28;20013;-61
2021/10/05 07:53:17;;;;;;;5.13;2.90;;;;;;;19.70;47.45;97362.66;5056244;28;20078;-60
2021/10/05 07:55:43;;;;;;;13.05;3.35;;;;;;;19.38;48.09;97371.63;5056377;28;20099;-61
2021/10/05 07:58:09;;;;;;;4.30;2.92;;;;;;;19.12;49.34;97379.38;5056311;28;20147;-61
2021/10/05 08:00:34;;;;;;;5.32;3.08;;;;;;;19.00;50.88;97372.13;5056368;28;20021;-61
2021/10/05 08:03:00;;;;;;;5.15;3.08;;;;;;;18.87;51.80;97375.47;5056193;28;20041;-61
2021/10/05 08:05:26;;;;;;;7.28;3.30;;;;;;;19.04;52.10;97373.63;5056034;28;20429;-60
2021/10/05 08:08:01;;;;;;;8.35;3.10;;;;;;;19.04;51.57;97360.38;5056185;28;20025;-61
2021/10/05 08:10:27;;;;;;;6.20;2.70;;;;;;;19.47;49.79;97364.91;5056147;28;20079;-61
2021/10/05 08:12:53;;;;;;;5.88;3.00;;;;;;;19.70;47.24;97362.66;5056070;28;20040;-61
2021/10/05 08:15:19;;;;;;;11.77;3.70;;;;;;;19.55;48.56;97365.31;5055947;28;20013;-62
2021/10/05 08:17:45;;;;;;;9.15;4.38;;;;;;;19.40;48.89;97368.88;5055821;28;20433;-62
2021/10/05 08:20:11;;;;;;;6.25;3.25;;;;;;;19.19;49.08;97369.25;5055780;28;20033;-62
2021/10/05 08:22:38;;;;;;;6.50;2.97;;;;;;;19.10;49.12;97367.13;5055758;28;20033;-61
2021/10/05 08:25:04;;;;;;;4.85;2.90;;;;;;;19.04;50.24;97361.25;5055822;28;20035;-62
2021/10/05 08:27:30;;;;;;;4.53;2.95;;;;;;;19.00;49.99;97361.50;5055791;28;20029;-62
2021/10/05 08:29:56;;;;;;;10.85;3.60;;;;;;;18.99;49.59;97365.94;5055614;28;20087;-62
2021/10/05 08:32:22;;;;;;;5.90;3.80;;;;;;;18.97;49.12;97362.56;5055619;28;20029;-61
2021/10/05 08:34:48;;;;;;;5.28;3.20;;;;;;;19.09;48.53;97363.66;5055665;28;20036;-61
2021/10/05 08:37:13;;;;;;;8.68;3.45;;;;;;;19.18;48.31;97362.25;5055458;28;20079;-61
2021/10/05 08:39:39;;;;;;;6.55;3.72;;;;;;;19.19;48.15;97351.56;5054659;28;20086;-62
2021/10/05 08:42:06;;;;;;;7.47;3.15;;;;;;;19.47;47.51;97361.44;5054891;28;20037;-61
2021/10/05 08:44:31;;;;;;;5.53;3.20;;;;;;;19.69;46.88;97366.25;5055475;28;20021;-61
2021/10/05 08:46:57;;;;;;;7.95;3.55;;;;;;;19.53;45.54;97361.88;5055479;28;20083;-61
2021/10/05 08:49:23;;;;;;;8.13;3.00;;;;;;;19.26;45.07;97364.44;5055408;28;20032;-62
2021/10/05 08:51:50;;;;;;;6.85;3.20;;;;;;;18.80;46.54;97352.94;5055435;28;20017;-61
2021/10/05 08:54:16;;;;;;;9.00;3.80;;;;;;;18.54;46.35;97355.28;5055240;28;20032;-61
2021/10/05 08:56:44;;;;;;;5.70;3.25;;;;;;;18.58;46.83;97361.28;5055301;28;20108;-62
2021/10/05 08:59:10;;;;;;;7.75;3.28;;;;;;;18.47;47.54;97360.09;5055251;28;20029;-61
2021/10/05 09:01:36;;;;;;;7.75;4.03;;;;;;;18.29;45.67;97364.66;5055206;28;20056;-61
2021/10/05 09:04:03;;;;;;;11.32;4.00;;;;;;;17.91;46.83;97365.84;5055143;28;20079;-61
2021/10/05 09:06:30;;;;;;;8.68;3.55;;;;;;;17.73;48.16;97375.63;5055073;28;20044;-61
2021/10/05 09:08:57;;;;;;;11.48;3.47;;;;;;;17.40;46.63;97370.25;5055111;28;20024;-61
2021/10/05 09:11:24;;;;;;;13.23;3.53;;;;;;;16.89;47.99;97368.38;5054987;28;20025;-61
2021/10/05 09:13:53;;;;;;;7.78;3.40;;;;;;;16.85;48.54;97377.41;5054984;28;20024;-61
2021/10/05 09:16:27;;;;;;;7.63;3.22;;;;;;;17.03;49.05;97378.28;5054752;28;20022;-61
2021/10/05 09:19:07;;;;;;;8.95;3.15;;;;;;;16.91;50.26;97374.47;5054627;28;20072;-61
2021/10/05 09:21:34;;;;;;;6.25;3.65;;;;;;;16.70;49.57;97376.38;5054634;28;20017;-61
2021/10/05 09:24:05;;;;;;;8.18;3.55;;;;;;;16.45;50.93;97380.25;5054689;28;20509;-61
2021/10/05 09:26:49;;;;;;;9.85;3.63;;;;;;;16.46;53.01;97383.75;5054892;28;20033;-61
2021/10/05 09:29:22;;;;;;;6.97;3.22;;;;;;;16.57;50.70;97385.84;5054533;28;20504;-61
2021/10/05 09:32:11;;;;;;;9.85;3.88;;;;;;;16.67;51.51;97387.97;5054521;28;20021;-61
2021/10/05 09:34:50;;;;;;;12.70;3.47;;;;;;;16.54;51.30;97382.44;5054630;28;20110;-61
2021/10/05 09:37:25;;;;;;;9.68;3.20;;;;;;;16.66;51.00;97382.75;5054421;28;20044;-61
2021/10/05 09:39:54;;;;;;;7.45;3.72;;;;;;;16.83;51.69;97381.94;5054428;28;20052;-61
2021/10/05 09:42:22;;;;;;;9.80;2.83;;;;;;;16.83;49.75;97375.78;5054424;28;20017;-61
2021/10/05 09:44:51;;;;;;;5.72;3.05;;;;;;;16.92;50.09;97383.25;5054481;28;20032;-61
2021/10/05 09:47:17;;;;;;;11.17;3.20;;;;;;;17.18;49.58;97389.00;5054394;28;20474;-61
2021/10/05 09:49:44;;;;;;;8.73;3.00;;;;;;;17.16;49.63;97394.38;5054258;28;20337;-61
2021/10/05 09:52:12;;;;;;;5.53;3.13;;;;;;;17.18;50.55;97394.31;5053680;28;20032;-61
2021/10/05 09:54:38;;;;;;;11.68;3.22;;;;;;;16.99;48.88;97391.72;5053983;28;20029;-61
2021/10/05 09:57:04;;;;;;;8.45;3.08;;;;;;;17.09;50.13;97389.47;5054141;28;20486;-61
2021/10/05 09:59:29;;;;;;;5.70;2.90;;;;;;;17.17;47.87;97385.53;5054028;28;20021;-61
2021/10/05 10:01:57;;;;;;;9.60;3.28;;;;;;;17.08;49.63;97388.66;5054060;28;20082;-61
2021/10/05 10:04:24;;;;;;;11.48;2.95;;;;;;;17.06;47.49;97385.19;5053944;28;20122;-61
2021/10/05 10:06:52;;;;;;;7.22;3.15;;;;;;;17.40;50.16;97374.69;5053905;28;20110;-61
2021/10/05 10:09:18;;;;;;;5.28;3.17;;;;;;;17.87;47.95;97382.78;5052533;28;20523;-62
2021/10/05 10:11:44;;;;;;;12.18;3.70;;;;;;;17.88;46.27;97395.09;5053797;28;20443;-61
2021/10/05 10:14:10;;;;;;;6.68;3.50;;;;;;;17.71;46.48;97385.41;5053834;28;20100;-61
2021/10/05 10:16:36;;;;;;;5.90;3.05;;;;;;;17.77;47.17;97382.44;5053758;28;20063;-61
2021/10/05 10:19:02;;;;;;;7.35;3.70;;;;;;;17.66;47.19;97383.88;5053652;28;20025;-61
2021/10/05 10:21:39;;;;;;;8.88;3.83;;;;;;;17.73;47.31;97383.56;5053700;28;20029;-61
2021/10/05 10:24:15;;;;;;;7.72;3.60;;;;;;;17.68;47.67;97383.81;5053695;28;20029;-61
2021/10/05 10:26:48;;;;;;;7.03;3.85;;;;;;;17.73;47.47;97383.56;5053620;28;20033;-61
2021/10/05 10:29:26;;;;;;;11.18;3.58;;;;;;;17.92;48.05;97378.97;5053532;28;20091;-61
2021/10/05 10:31:51;;;;;;;16.38;4.10;;;;;;;18.24;46.04;97383.44;5053428;28;20471;-61
2021/10/05 10:34:22;;;;;;;3.38;3.05;;;;;;;18.50;44.75;97386.44;5053339;28;20104;-61
2021/10/05 10:36:48;;;;;;;5.25;3.17;;;;;;;18.48;44.59;97379.50;5053146;28;20045;-62
2021/10/05 10:39:18;;;;;;;6.13;2.85;;;;;;;18.37;43.40;97372.16;5053189;28;20025;-61
2021/10/05 10:41:58;;;;;;;5.78;3.13;;;;;;;18.25;43.23;97365.78;5053168;28;20048;-61
2021/10/05 10:44:34;;;;;;;7.35;2.90;;;;;;;18.38;45.50;97358.84;5053331;28;20021;-61
2021/10/05 10:47:13;;;;;;;7.22;3.65;;;;;;;18.79;43.69;97359.19;5053345;28;20037;-61
2021/10/05 10:49:39;;;;;;;4.05;2.97;;;;;;;18.64;42.74;97368.88;5053213;28;20053;-61
2021/10/05 10:52:06;;;;;;;6.28;3.22;;;;;;;18.22;43.83;97361.50;5053134;28;20029;-61
2021/10/05 10:54:31;;;;;;;10.27;3.20;;;;;;;18.24;45.06;97359.59;5053173;28;20033;-62
2021/10/05 10:57:03;;;;;;;8.65;3.05;;;;;;;18.41;43.50;97350.72;5053042;28;20087;-61
2021/10/05 10:59:30;;;;;;;5.78;3.15;;;;;;;18.50;43.46;97348.47;5053078;28;20386;-61
2021/10/05 11:02:04;;;;;;;10.70;3.30;;;;;;;18.26;43.29;97351.59;5052929;28;20425;-60
2021/10/05 11:04:30;;;;;;;12.07;3.10;;;;;;;17.97;42.87;97354.88;5052310;28;20063;-61
2021/10/05 11:06:58;;;;;;;9.25;3.15;;;;;;;17.92;43.62;97354.31;5052953;28;20063;-62
2021/10/05 11:09:31;;;;;;;8.23;2.80;;;;;;;17.97;42.70;97348.75;5052920;28;20053;-61
2021/10/05 11:11:57;;;;;;;8.30;3.08;;;;;;;18.05;42.79;97339.44;5052863;28;20060;-62
2021/10/05 11:14:30;;;;;;;4.60;2.70;;;;;;;18.02;42.22;97344.03;5051626;28;20111;-60
2021/10/05 11:17:00;;;;;;;10.50;2.92;;;;;;;17.94;43.06;97345.34;5052911;28;20479;-61
2021/10/05 11:19:32;;;;;;;6.68;3.25;;;;;;;17.83;42.01;97339.78;5052867;28;20037;-61
2021/10/05 11:21:59;;;;;;;7.00;2.75;;;;;;;17.78;42.37;97339.16;5052987;28;20109;-62
2021/10/05 11:24:37;;;;;;;8.80;2.85;;;;;;;17.61;41.74;97333.00;5052820;28;20033;-61
2021/10/05 11:27:11;;;;;;;9.50;3.42;;;;;;;17.57;42.09;97331.47;5052702;28;20123;-61
2021/10/05 11:29:37;;;;;;;3.67;2.75;;;;;;;17.58;42.66;97325.22;5052811;28;20028;-61
2021/10/05 11:32:05;;;;;;;9.95;2.75;;;;;;;17.79;43.45;97322.38;5052816;28;20025;-62
2021/10/05 11:34:37;;;;;;;5.72;2.40;;;;;;;17.98;42.04;97322.22;5052807;28;20029;-61
2021/10/05 11:37:06;;;;;;;8.00;2.75;;;;;;;18.04;40.22;97319.22;5052342;28;20049;-61